sensor_id;sensor_type;location;lat;lon;timestamp;P1;durP1;ratioP1;P2;durP2;ratioP2
50988;SDS011;37008;52.210;21.112;2023-03-20T00:00:07;70.78;;;38.78;;
50988;SDS011;37008;52.210;21.112;2023-03-20T00:02:38;79.70;;;38.47;;
50988;SDS011;37008;52.210;21.112;2023-03-20T00:05:17;74.18;;;38.63;;
50988;SDS011;37008;52.210;21.112;2023-03-20T00:07:45;75.90;;;40.75;;
50988;SDS011;37008;52.210;21.112;2023-03-20T00:10:13;73.63;;;38.72;;
50988;SDS011;37008;52.210;21.112;2023-03-20T00:12:40;71.88;;;37.65;;
50988;SDS011;37008;52.210;21.112;2023-03-20T00:15:13;86.57;;;40.80;;
50988;SDS011;37008;52.210;21.112;2023-03-20T00:17:50;72.90;;;39.75;;
50988;SDS011;37008;52.210;21.112;2023-03-20T00:20:16;69.57;;;36.85;;
50988;SDS011;37008;52.210;21.112;2023-03-20T00:22:42;67.63;;;36.63;;
50988;SDS011;37008;52.210;21.112;2023-03-20T00:25:14;64.25;;;35.65;;
50988;SDS011;37008;52.210;21.112;2023-03-20T00:27:42;66.82;;;35.58;;
50988;SDS011;37008;52.210;21.112;2023-03-20T00:30:15;58.50;;;34.28;;
50988;SDS011;37008;52.210;21.112;2023-03-20T00:32:47;68.45;;;36.45;;
50988;SDS011;37008;52.210;21.112;2023-03-20T00:35:17;64.75;;;34.55;;
50988;SDS011;37008;52.210;21.112;2023-03-20T00:37:47;66.18;;;34.85;;
50988;SDS011;37008;52.210;21.112;2023-03-20T00:40:13;63.90;;;35.10;;
50988;SDS011;37008;52.210;21.112;2023-03-20T00:42:39;62.28;;;35.10;;
50988;SDS011;37008;52.210;21.112;2023-03-20T00:45:07;59.88;;;36.03;;
50988;SDS011;37008;52.210;21.112;2023-03-20T00:47:37;65.45;;;35.17;;
50988;SDS011;37008;52.210;21.112;2023-03-20T00:50:06;67.28;;;34.58;;
50988;SDS011;37008;52.210;21.112;2023-03-20T00:52:49;67.82;;;35.50;;
50988;SDS011;37008;52.210;21.112;2023-03-20T00:55:16;60.00;;;35.25;;
50988;SDS011;37008;52.210;21.112;2023-03-20T01:00:25;68.30;;;36.85;;
50988;SDS011;37008;52.210;21.112;2023-03-20T01:03:11;86.85;;;39.90;;
50988;SDS011;37008;52.210;21.112;2023-03-20T01:05:42;76.35;;;39.42;;
50988;SDS011;37008;52.210;21.112;2023-03-20T01:08:12;73.40;;;36.67;;
50988;SDS011;37008;52.210;21.112;2023-03-20T01:10:47;78.43;;;41.53;;
50988;SDS011;37008;52.210;21.112;2023-03-20T01:13:22;67.13;;;37.00;;
50988;SDS011;37008;52.210;21.112;2023-03-20T01:15:53;69.70;;;36.90;;
50988;SDS011;37008;52.210;21.112;2023-03-20T01:18:22;66.70;;;35.67;;
50988;SDS011;37008;52.210;21.112;2023-03-20T01:20:48;67.20;;;37.13;;
50988;SDS011;37008;52.210;21.112;2023-03-20T01:23:14;63.58;;;37.60;;
50988;SDS011;37008;52.210;21.112;2023-03-20T01:25:40;69.75;;;37.17;;
50988;SDS011;37008;52.210;21.112;2023-03-20T01:28:16;66.47;;;38.33;;
50988;SDS011;37008;52.210;21.112;2023-03-20T01:30:44;75.68;;;40.72;;
50988;SDS011;37008;52.210;21.112;2023-03-20T01:33:12;69.90;;;41.25;;
50988;SDS011;37008;52.210;21.112;2023-03-20T01:35:46;74.63;;;40.05;;
50988;SDS011;37008;52.210;21.112;2023-03-20T01:43:23;73.55;;;40.55;;
50988;SDS011;37008;52.210;21.112;2023-03-20T01:48:22;75.78;;;42.20;;
50988;SDS011;37008;52.210;21.112;2023-03-20T01:50:51;72.38;;;40.65;;
50988;SDS011;37008;52.210;21.112;2023-03-20T01:53:20;77.60;;;40.70;;
50988;SDS011;37008;52.210;21.112;2023-03-20T01:55:49;70.60;;;39.63;;
50988;SDS011;37008;52.210;21.112;2023-03-20T01:58:19;65.47;;;37.00;;
50988;SDS011;37008;52.210;21.112;2023-03-20T02:00:48;70.47;;;39.08;;
50988;SDS011;37008;52.210;21.112;2023-03-20T02:03:14;65.88;;;36.67;;
50988;SDS011;37008;52.210;21.112;2023-03-20T02:05:40;61.92;;;36.42;;
50988;SDS011;37008;52.210;21.112;2023-03-20T02:08:14;68.22;;;38.90;;
50988;SDS011;37008;52.210;21.112;2023-03-20T02:10:44;64.15;;;34.08;;
50988;SDS011;37008;52.210;21.112;2023-03-20T02:13:11;69.38;;;39.33;;
50988;SDS011;37008;52.210;21.112;2023-03-20T02:18:20;67.40;;;36.95;;
50988;SDS011;37008;52.210;21.112;2023-03-20T02:20:55;70.28;;;38.13;;
50988;SDS011;37008;52.210;21.112;2023-03-20T02:23:38;58.53;;;34.60;;
50988;SDS011;37008;52.210;21.112;2023-03-20T02:26:58;63.10;;;34.75;;
50988;SDS011;37008;52.210;21.112;2023-03-20T02:32:00;67.72;;;36.97;;
50988;SDS011;37008;52.210;21.112;2023-03-20T02:40:07;63.58;;;35.72;;
50988;SDS011;37008;52.210;21.112;2023-03-20T02:50:50;67.82;;;37.13;;
50988;SDS011;37008;52.210;21.112;2023-03-20T02:53:34;64.47;;;34.88;;
50988;SDS011;37008;52.210;21.112;2023-03-20T02:56:21;61.13;;;34.95;;
50988;SDS011;37008;52.210;21.112;2023-03-20T03:01:46;70.10;;;38.15;;
50988;SDS011;37008;52.210;21.112;2023-03-20T03:04:26;63.92;;;35.30;;
50988;SDS011;37008;52.210;21.112;2023-03-20T03:06:56;65.22;;;38.05;;
50988;SDS011;37008;52.210;21.112;2023-03-20T03:09:27;70.10;;;37.53;;
50988;SDS011;37008;52.210;21.112;2023-03-20T03:12:00;66.10;;;35.30;;
50988;SDS011;37008;52.210;21.112;2023-03-20T03:17:03;61.92;;;37.10;;
50988;SDS011;37008;52.210;21.112;2023-03-20T03:19:31;62.88;;;37.50;;
50988;SDS011;37008;52.210;21.112;2023-03-20T03:21:59;59.42;;;36.08;;
50988;SDS011;37008;52.210;21.112;2023-03-20T03:24:29;78.90;;;43.47;;
50988;SDS011;37008;52.210;21.112;2023-03-20T03:27:00;89.18;;;47.35;;
50988;SDS011;37008;52.210;21.112;2023-03-20T03:29:29;65.22;;;37.20;;
50988;SDS011;37008;52.210;21.112;2023-03-20T03:32:00;60.75;;;35.70;;
50988;SDS011;37008;52.210;21.112;2023-03-20T03:34:28;72.15;;;41.55;;
50988;SDS011;37008;52.210;21.112;2023-03-20T03:39:47;73.45;;;41.08;;
50988;SDS011;37008;52.210;21.112;2023-03-20T03:42:34;72.65;;;41.72;;
50988;SDS011;37008;52.210;21.112;2023-03-20T03:45:05;66.25;;;38.42;;
50988;SDS011;37008;52.210;21.112;2023-03-20T03:47:44;64.65;;;37.67;;
50988;SDS011;37008;52.210;21.112;2023-03-20T03:50:17;72.18;;;41.40;;
50988;SDS011;37008;52.210;21.112;2023-03-20T03:52:47;65.53;;;37.50;;
50988;SDS011;37008;52.210;21.112;2023-03-20T03:55:20;64.88;;;37.70;;
50988;SDS011;37008;52.210;21.112;2023-03-20T03:57:50;75.68;;;40.80;;
50988;SDS011;37008;52.210;21.112;2023-03-20T04:00:22;86.38;;;45.35;;
50988;SDS011;37008;52.210;21.112;2023-03-20T04:02:50;64.72;;;38.70;;
50988;SDS011;37008;52.210;21.112;2023-03-20T04:05:19;77.40;;;43.25;;
50988;SDS011;37008;52.210;21.112;2023-03-20T04:07:47;77.15;;;42.53;;
50988;SDS011;37008;52.210;21.112;2023-03-20T04:10:19;77.53;;;44.00;;
50988;SDS011;37008;52.210;21.112;2023-03-20T04:12:45;74.30;;;41.72;;
50988;SDS011;37008;52.210;21.112;2023-03-20T04:15:11;80.13;;;41.78;;
50988;SDS011;37008;52.210;21.112;2023-03-20T04:17:39;71.65;;;42.08;;
50988;SDS011;37008;52.210;21.112;2023-03-20T04:20:05;78.40;;;42.80;;
50988;SDS011;37008;52.210;21.112;2023-03-20T04:22:32;76.50;;;42.67;;
50988;SDS011;37008;52.210;21.112;2023-03-20T04:24:59;68.00;;;39.42;;
50988;SDS011;37008;52.210;21.112;2023-03-20T04:27:27;73.85;;;40.85;;
50988;SDS011;37008;52.210;21.112;2023-03-20T04:29:53;74.28;;;41.83;;
50988;SDS011;37008;52.210;21.112;2023-03-20T04:32:18;77.20;;;41.30;;
50988;SDS011;37008;52.210;21.112;2023-03-20T04:34:44;74.07;;;41.78;;
50988;SDS011;37008;52.210;21.112;2023-03-20T04:37:10;72.38;;;41.55;;
50988;SDS011;37008;52.210;21.112;2023-03-20T04:39:35;67.68;;;38.97;;
50988;SDS011;37008;52.210;21.112;2023-03-20T04:42:01;67.85;;;40.45;;
50988;SDS011;37008;52.210;21.112;2023-03-20T04:44:28;66.85;;;38.67;;
50988;SDS011;37008;52.210;21.112;2023-03-20T04:46:54;70.65;;;40.30;;
50988;SDS011;37008;52.210;21.112;2023-03-20T04:49:20;70.68;;;39.47;;
50988;SDS011;37008;52.210;21.112;2023-03-20T04:51:46;67.75;;;37.80;;
50988;SDS011;37008;52.210;21.112;2023-03-20T04:54:11;72.72;;;40.95;;
50988;SDS011;37008;52.210;21.112;2023-03-20T04:56:37;74.60;;;41.20;;
50988;SDS011;37008;52.210;21.112;2023-03-20T04:59:02;71.90;;;39.30;;
50988;SDS011;37008;52.210;21.112;2023-03-20T05:01:28;75.15;;;39.70;;
50988;SDS011;37008;52.210;21.112;2023-03-20T05:03:54;73.22;;;43.92;;
50988;SDS011;37008;52.210;21.112;2023-03-20T05:06:25;66.97;;;40.55;;
50988;SDS011;37008;52.210;21.112;2023-03-20T05:08:52;82.78;;;46.90;;
50988;SDS011;37008;52.210;21.112;2023-03-20T05:11:17;104.45;;;55.72;;
50988;SDS011;37008;52.210;21.112;2023-03-20T05:13:43;78.50;;;45.78;;
50988;SDS011;37008;52.210;21.112;2023-03-20T05:16:08;89.03;;;47.97;;
50988;SDS011;37008;52.210;21.112;2023-03-20T05:18:34;82.03;;;45.63;;
50988;SDS011;37008;52.210;21.112;2023-03-20T05:21:00;72.75;;;40.38;;
50988;SDS011;37008;52.210;21.112;2023-03-20T05:23:26;73.65;;;41.78;;
50988;SDS011;37008;52.210;21.112;2023-03-20T05:25:52;67.22;;;39.33;;
50988;SDS011;37008;52.210;21.112;2023-03-20T05:28:17;79.55;;;42.75;;
50988;SDS011;37008;52.210;21.112;2023-03-20T05:30:43;69.15;;;40.75;;
50988;SDS011;37008;52.210;21.112;2023-03-20T05:33:08;67.05;;;38.78;;
50988;SDS011;37008;52.210;21.112;2023-03-20T05:35:34;69.85;;;40.05;;
50988;SDS011;37008;52.210;21.112;2023-03-20T05:38:00;73.88;;;41.40;;
50988;SDS011;37008;52.210;21.112;2023-03-20T05:40:25;69.88;;;41.08;;
50988;SDS011;37008;52.210;21.112;2023-03-20T05:42:51;71.68;;;40.92;;
50988;SDS011;37008;52.210;21.112;2023-03-20T05:45:17;74.88;;;41.83;;
50988;SDS011;37008;52.210;21.112;2023-03-20T05:47:43;74.68;;;42.70;;
50988;SDS011;37008;52.210;21.112;2023-03-20T05:50:09;71.20;;;43.22;;
50988;SDS011;37008;52.210;21.112;2023-03-20T05:52:35;92.70;;;51.30;;
50988;SDS011;37008;52.210;21.112;2023-03-20T05:55:00;96.07;;;48.83;;
50988;SDS011;37008;52.210;21.112;2023-03-20T05:57:26;100.85;;;49.13;;
50988;SDS011;37008;52.210;21.112;2023-03-20T05:59:52;101.28;;;49.20;;
50988;SDS011;37008;52.210;21.112;2023-03-20T06:02:17;98.07;;;47.58;;
50988;SDS011;37008;52.210;21.112;2023-03-20T06:04:43;82.85;;;48.03;;
50988;SDS011;37008;52.210;21.112;2023-03-20T06:07:08;85.40;;;45.97;;
50988;SDS011;37008;52.210;21.112;2023-03-20T06:09:34;97.57;;;46.72;;
50988;SDS011;37008;52.210;21.112;2023-03-20T06:12:00;78.50;;;43.22;;
50988;SDS011;37008;52.210;21.112;2023-03-20T06:14:26;80.20;;;43.00;;
50988;SDS011;37008;52.210;21.112;2023-03-20T06:16:51;74.20;;;39.70;;
50988;SDS011;37008;52.210;21.112;2023-03-20T06:19:18;75.00;;;38.92;;
50988;SDS011;37008;52.210;21.112;2023-03-20T06:21:44;69.57;;;37.88;;
50988;SDS011;37008;52.210;21.112;2023-03-20T06:24:10;67.93;;;37.00;;
50988;SDS011;37008;52.210;21.112;2023-03-20T06:26:35;66.75;;;36.47;;
50988;SDS011;37008;52.210;21.112;2023-03-20T06:29:01;63.35;;;35.95;;
50988;SDS011;37008;52.210;21.112;2023-03-20T06:31:27;66.75;;;34.80;;
50988;SDS011;37008;52.210;21.112;2023-03-20T06:33:52;60.72;;;33.83;;
50988;SDS011;37008;52.210;21.112;2023-03-20T06:36:18;70.80;;;33.38;;
50988;SDS011;37008;52.210;21.112;2023-03-20T06:38:44;55.58;;;33.30;;
50988;SDS011;37008;52.210;21.112;2023-03-20T06:41:09;56.97;;;31.33;;
50988;SDS011;37008;52.210;21.112;2023-03-20T06:43:35;57.97;;;31.38;;
50988;SDS011;37008;52.210;21.112;2023-03-20T06:46:01;71.90;;;31.70;;
50988;SDS011;37008;52.210;21.112;2023-03-20T06:48:27;55.60;;;31.90;;
50988;SDS011;37008;52.210;21.112;2023-03-20T06:50:52;50.53;;;32.08;;
50988;SDS011;37008;52.210;21.112;2023-03-20T06:53:18;61.15;;;31.75;;
50988;SDS011;37008;52.210;21.112;2023-03-20T06:55:47;57.20;;;32.10;;
50988;SDS011;37008;52.210;21.112;2023-03-20T06:58:13;55.20;;;30.65;;
50988;SDS011;37008;52.210;21.112;2023-03-20T07:00:39;59.10;;;31.83;;
50988;SDS011;37008;52.210;21.112;2023-03-20T07:03:04;49.80;;;29.77;;
50988;SDS011;37008;52.210;21.112;2023-03-20T07:05:30;54.88;;;32.10;;
50988;SDS011;37008;52.210;21.112;2023-03-20T07:07:56;56.63;;;33.08;;
50988;SDS011;37008;52.210;21.112;2023-03-20T07:10:22;54.30;;;32.03;;
50988;SDS011;37008;52.210;21.112;2023-03-20T07:12:48;58.35;;;33.03;;
50988;SDS011;37008;52.210;21.112;2023-03-20T07:15:14;54.55;;;31.80;;
50988;SDS011;37008;52.210;21.112;2023-03-20T07:17:41;56.88;;;30.95;;
50988;SDS011;37008;52.210;21.112;2023-03-20T07:20:07;56.53;;;31.33;;
50988;SDS011;37008;52.210;21.112;2023-03-20T07:22:34;54.17;;;31.20;;
50988;SDS011;37008;52.210;21.112;2023-03-20T07:24:59;57.10;;;32.13;;
50988;SDS011;37008;52.210;21.112;2023-03-20T07:27:25;58.28;;;31.42;;
50988;SDS011;37008;52.210;21.112;2023-03-20T07:29:51;56.78;;;30.92;;
50988;SDS011;37008;52.210;21.112;2023-03-20T07:32:17;56.50;;;33.17;;
50988;SDS011;37008;52.210;21.112;2023-03-20T07:34:43;58.33;;;32.65;;
50988;SDS011;37008;52.210;21.112;2023-03-20T07:37:08;59.85;;;33.88;;
50988;SDS011;37008;52.210;21.112;2023-03-20T07:39:34;58.65;;;33.65;;
50988;SDS011;37008;52.210;21.112;2023-03-20T07:42:00;57.35;;;33.38;;
50988;SDS011;37008;52.210;21.112;2023-03-20T07:44:25;54.83;;;32.22;;
50988;SDS011;37008;52.210;21.112;2023-03-20T07:46:51;53.60;;;31.75;;
50988;SDS011;37008;52.210;21.112;2023-03-20T07:49:17;54.10;;;31.95;;
50988;SDS011;37008;52.210;21.112;2023-03-20T07:51:43;53.13;;;31.52;;
50988;SDS011;37008;52.210;21.112;2023-03-20T07:54:09;49.42;;;31.25;;
50988;SDS011;37008;52.210;21.112;2023-03-20T07:56:35;57.45;;;31.85;;
50988;SDS011;37008;52.210;21.112;2023-03-20T07:59:01;56.10;;;32.70;;
50988;SDS011;37008;52.210;21.112;2023-03-20T08:01:27;52.45;;;31.88;;
50988;SDS011;37008;52.210;21.112;2023-03-20T08:03:53;54.97;;;30.85;;
50988;SDS011;37008;52.210;21.112;2023-03-20T08:06:18;50.95;;;30.73;;
50988;SDS011;37008;52.210;21.112;2023-03-20T08:08:44;51.08;;;30.17;;
50988;SDS011;37008;52.210;21.112;2023-03-20T08:11:10;54.03;;;30.10;;
50988;SDS011;37008;52.210;21.112;2023-03-20T08:13:36;52.25;;;29.50;;
50988;SDS011;37008;52.210;21.112;2023-03-20T08:16:03;56.72;;;31.00;;
50988;SDS011;37008;52.210;21.112;2023-03-20T08:18:30;51.90;;;29.58;;
50988;SDS011;37008;52.210;21.112;2023-03-20T08:20:59;53.22;;;29.17;;
50988;SDS011;37008;52.210;21.112;2023-03-20T08:23:25;48.58;;;29.15;;
50988;SDS011;37008;52.210;21.112;2023-03-20T08:25:51;49.78;;;29.98;;
50988;SDS011;37008;52.210;21.112;2023-03-20T08:28:18;52.50;;;28.90;;
50988;SDS011;37008;52.210;21.112;2023-03-20T08:30:44;49.65;;;29.92;;
50988;SDS011;37008;52.210;21.112;2023-03-20T08:33:11;49.88;;;29.88;;
50988;SDS011;37008;52.210;21.112;2023-03-20T08:35:37;51.63;;;28.63;;
50988;SDS011;37008;52.210;21.112;2023-03-20T08:38:03;51.80;;;28.23;;
50988;SDS011;37008;52.210;21.112;2023-03-20T08:40:29;63.15;;;29.70;;
50988;SDS011;37008;52.210;21.112;2023-03-20T08:42:55;52.58;;;32.35;;
50988;SDS011;37008;52.210;21.112;2023-03-20T08:45:21;58.60;;;28.63;;
50988;SDS011;37008;52.210;21.112;2023-03-20T08:47:49;52.13;;;28.92;;
50988;SDS011;37008;52.210;21.112;2023-03-20T08:50:16;52.63;;;29.10;;
50988;SDS011;37008;52.210;21.112;2023-03-20T08:52:42;42.17;;;27.08;;
50988;SDS011;37008;52.210;21.112;2023-03-20T08:55:10;49.10;;;27.33;;
50988;SDS011;37008;52.210;21.112;2023-03-20T08:57:36;48.53;;;27.25;;
50988;SDS011;37008;52.210;21.112;2023-03-20T09:00:05;48.85;;;27.05;;
50988;SDS011;37008;52.210;21.112;2023-03-20T09:02:32;53.38;;;28.25;;
50988;SDS011;37008;52.210;21.112;2023-03-20T09:04:58;54.25;;;27.48;;
50988;SDS011;37008;52.210;21.112;2023-03-20T09:07:23;48.70;;;26.88;;
50988;SDS011;37008;52.210;21.112;2023-03-20T09:09:49;50.60;;;25.20;;
50988;SDS011;37008;52.210;21.112;2023-03-20T09:12:15;46.53;;;25.13;;
50988;SDS011;37008;52.210;21.112;2023-03-20T09:14:40;38.95;;;20.85;;
50988;SDS011;37008;52.210;21.112;2023-03-20T09:17:06;29.92;;;18.80;;
50988;SDS011;37008;52.210;21.112;2023-03-20T09:19:32;30.30;;;19.65;;
50988;SDS011;37008;52.210;21.112;2023-03-20T09:21:59;38.88;;;20.83;;
50988;SDS011;37008;52.210;21.112;2023-03-20T09:24:25;31.92;;;19.05;;
50988;SDS011;37008;52.210;21.112;2023-03-20T09:26:50;26.70;;;17.92;;
50988;SDS011;37008;52.210;21.112;2023-03-20T09:29:16;31.40;;;18.65;;
50988;SDS011;37008;52.210;21.112;2023-03-20T09:31:42;30.35;;;18.25;;
50988;SDS011;37008;52.210;21.112;2023-03-20T09:34:08;29.98;;;19.13;;
50988;SDS011;37008;52.210;21.112;2023-03-20T09:36:33;31.23;;;18.52;;
50988;SDS011;37008;52.210;21.112;2023-03-20T09:38:59;32.35;;;16.40;;
50988;SDS011;37008;52.210;21.112;2023-03-20T09:41:25;27.92;;;17.05;;
50988;SDS011;37008;52.210;21.112;2023-03-20T09:43:57;31.60;;;17.67;;
50988;SDS011;37008;52.210;21.112;2023-03-20T09:51:47;29.75;;;17.40;;
50988;SDS011;37008;52.210;21.112;2023-03-20T09:57:00;28.63;;;17.65;;
50988;SDS011;37008;52.210;21.112;2023-03-20T09:59:26;26.88;;;17.38;;
50988;SDS011;37008;52.210;21.112;2023-03-20T10:02:00;29.95;;;18.00;;
50988;SDS011;37008;52.210;21.112;2023-03-20T10:04:32;31.40;;;16.73;;
50988;SDS011;37008;52.210;21.112;2023-03-20T10:06:58;26.77;;;16.38;;
50988;SDS011;37008;52.210;21.112;2023-03-20T10:09:28;25.02;;;16.52;;
50988;SDS011;37008;52.210;21.112;2023-03-20T10:15:12;27.02;;;15.88;;
50988;SDS011;37008;52.210;21.112;2023-03-20T10:21:00;34.22;;;17.80;;
50988;SDS011;37008;52.210;21.112;2023-03-20T10:23:15;36.95;;;18.15;;
50988;SDS011;37008;52.210;21.112;2023-03-20T10:25:59;31.27;;;18.67;;
50988;SDS011;37008;52.210;21.112;2023-03-20T10:28:43;26.55;;;17.20;;
50988;SDS011;37008;52.210;21.112;2023-03-20T10:37:08;29.13;;;17.25;;
50988;SDS011;37008;52.210;21.112;2023-03-20T10:42:38;28.55;;;17.02;;
50988;SDS011;37008;52.210;21.112;2023-03-20T10:45:12;24.92;;;16.83;;
50988;SDS011;37008;52.210;21.112;2023-03-20T10:48:01;25.35;;;16.50;;
50988;SDS011;37008;52.210;21.112;2023-03-20T10:50:39;28.13;;;17.10;;
50988;SDS011;37008;52.210;21.112;2023-03-20T10:55:41;28.15;;;18.02;;
50988;SDS011;37008;52.210;21.112;2023-03-20T10:58:21;32.15;;;19.85;;
50988;SDS011;37008;52.210;21.112;2023-03-20T11:00:50;36.22;;;19.88;;
50988;SDS011;37008;52.210;21.112;2023-03-20T11:03:20;31.83;;;19.98;;
50988;SDS011;37008;52.210;21.112;2023-03-20T11:05:48;30.13;;;20.75;;
50988;SDS011;37008;52.210;21.112;2023-03-20T11:08:21;33.05;;;21.25;;
50988;SDS011;37008;52.210;21.112;2023-03-20T11:10:56;34.83;;;20.98;;
50988;SDS011;37008;52.210;21.112;2023-03-20T11:29:00;42.00;;;27.33;;
50988;SDS011;37008;52.210;21.112;2023-03-20T11:36:44;44.03;;;26.13;;
50988;SDS011;37008;52.210;21.112;2023-03-20T11:39:29;44.38;;;26.40;;
50988;SDS011;37008;52.210;21.112;2023-03-20T11:41:59;41.33;;;26.67;;
50988;SDS011;37008;52.210;21.112;2023-03-20T11:44:32;41.42;;;26.83;;
50988;SDS011;37008;52.210;21.112;2023-03-20T11:49:31;42.88;;;27.85;;
50988;SDS011;37008;52.210;21.112;2023-03-20T11:52:18;45.70;;;27.83;;
50988;SDS011;37008;52.210;21.112;2023-03-20T11:54:50;41.28;;;26.40;;
50988;SDS011;37008;52.210;21.112;2023-03-20T11:57:40;52.58;;;29.25;;
50988;SDS011;37008;52.210;21.112;2023-03-20T12:02:35;38.88;;;25.90;;
50988;SDS011;37008;52.210;21.112;2023-03-20T12:05:02;39.30;;;25.58;;
50988;SDS011;37008;52.210;21.112;2023-03-20T12:08:11;33.33;;;21.15;;
50988;SDS011;37008;52.210;21.112;2023-03-20T12:10:44;32.22;;;21.73;;
50988;SDS011;37008;52.210;21.112;2023-03-20T12:13:23;37.47;;;22.67;;
50988;SDS011;37008;52.210;21.112;2023-03-20T12:15:54;39.30;;;22.00;;
50988;SDS011;37008;52.210;21.112;2023-03-20T12:18:35;42.17;;;24.23;;
50988;SDS011;37008;52.210;21.112;2023-03-20T12:26:38;38.00;;;25.58;;
50988;SDS011;37008;52.210;21.112;2023-03-20T12:29:09;39.47;;;25.45;;
50988;SDS011;37008;52.210;21.112;2023-03-20T12:34:57;40.70;;;26.38;;
50988;SDS011;37008;52.210;21.112;2023-03-20T12:37:29;40.45;;;26.02;;
50988;SDS011;37008;52.210;21.112;2023-03-20T12:39:57;39.25;;;24.88;;
50988;SDS011;37008;52.210;21.112;2023-03-20T12:47:55;39.13;;;24.35;;
50988;SDS011;37008;52.210;21.112;2023-03-20T12:50:43;34.60;;;23.83;;
50988;SDS011;37008;52.210;21.112;2023-03-20T12:59:26;35.78;;;23.92;;
50988;SDS011;37008;52.210;21.112;2023-03-20T13:10:21;31.73;;;23.63;;
50988;SDS011;37008;52.210;21.112;2023-03-20T13:12:59;35.03;;;24.45;;
50988;SDS011;37008;52.210;21.112;2023-03-20T13:18:55;34.42;;;24.75;;
50988;SDS011;37008;52.210;21.112;2023-03-20T13:21:31;33.85;;;23.33;;
50988;SDS011;37008;52.210;21.112;2023-03-20T13:26:43;33.55;;;24.08;;
50988;SDS011;37008;52.210;21.112;2023-03-20T13:45:24;30.05;;;20.23;;
50988;SDS011;37008;52.210;21.112;2023-03-20T13:47:57;28.80;;;20.77;;
50988;SDS011;37008;52.210;21.112;2023-03-20T13:50:41;30.48;;;21.17;;
50988;SDS011;37008;52.210;21.112;2023-03-20T13:53:27;31.20;;;20.63;;
50988;SDS011;37008;52.210;21.112;2023-03-20T14:04:29;36.13;;;25.48;;
50988;SDS011;37008;52.210;21.112;2023-03-20T14:06:56;36.75;;;25.92;;
50988;SDS011;37008;52.210;21.112;2023-03-20T14:09:24;36.70;;;26.98;;
50988;SDS011;37008;52.210;21.112;2023-03-20T14:12:05;38.67;;;27.10;;
50988;SDS011;37008;52.210;21.112;2023-03-20T14:14:45;41.15;;;28.58;;
50988;SDS011;37008;52.210;21.112;2023-03-20T14:17:34;43.40;;;29.40;;
50988;SDS011;37008;52.210;21.112;2023-03-20T14:20:12;43.53;;;30.02;;
50988;SDS011;37008;52.210;21.112;2023-03-20T14:22:51;48.30;;;28.88;;
50988;SDS011;37008;52.210;21.112;2023-03-20T14:25:18;42.05;;;30.17;;
50988;SDS011;37008;52.210;21.112;2023-03-20T14:27:59;39.20;;;29.30;;
50988;SDS011;37008;52.210;21.112;2023-03-20T14:35:45;39.30;;;27.98;;
50988;SDS011;37008;52.210;21.112;2023-03-20T14:41:22;40.05;;;26.80;;
50988;SDS011;37008;52.210;21.112;2023-03-20T14:54:51;32.40;;;23.90;;
50988;SDS011;37008;52.210;21.112;2023-03-20T14:57:18;32.65;;;23.95;;
50988;SDS011;37008;52.210;21.112;2023-03-20T14:59:55;32.40;;;23.25;;
50988;SDS011;37008;52.210;21.112;2023-03-20T15:02:23;29.27;;;22.27;;
50988;SDS011;37008;52.210;21.112;2023-03-20T15:04:51;32.70;;;23.30;;
50988;SDS011;37008;52.210;21.112;2023-03-20T15:09:46;32.83;;;21.92;;
50988;SDS011;37008;52.210;21.112;2023-03-20T15:12:18;31.77;;;21.95;;
50988;SDS011;37008;52.210;21.112;2023-03-20T15:14:47;31.23;;;23.05;;
50988;SDS011;37008;52.210;21.112;2023-03-20T15:17:21;30.20;;;22.10;;
50988;SDS011;37008;52.210;21.112;2023-03-20T15:20:05;33.00;;;24.63;;
50988;SDS011;37008;52.210;21.112;2023-03-20T15:22:57;29.13;;;21.85;;
50988;SDS011;37008;52.210;21.112;2023-03-20T15:25:58;27.58;;;20.30;;
50988;SDS011;37008;52.210;21.112;2023-03-20T15:28:23;28.20;;;22.10;;
50988;SDS011;37008;52.210;21.112;2023-03-20T15:30:51;29.77;;;22.23;;
50988;SDS011;37008;52.210;21.112;2023-03-20T15:34:05;33.03;;;21.45;;
50988;SDS011;37008;52.210;21.112;2023-03-20T15:36:15;35.42;;;23.38;;
50988;SDS011;37008;52.210;21.112;2023-03-20T15:38:47;29.02;;;22.45;;
50988;SDS011;37008;52.210;21.112;2023-03-20T15:41:26;29.73;;;21.77;;
50988;SDS011;37008;52.210;21.112;2023-03-20T15:49:28;32.90;;;21.02;;
50988;SDS011;37008;52.210;21.112;2023-03-20T15:51:56;25.10;;;17.15;;
50988;SDS011;37008;52.210;21.112;2023-03-20T15:54:32;23.05;;;15.98;;
50988;SDS011;37008;52.210;21.112;2023-03-20T15:57:01;20.05;;;14.50;;
50988;SDS011;37008;52.210;21.112;2023-03-20T15:59:30;28.10;;;15.52;;
50988;SDS011;37008;52.210;21.112;2023-03-20T16:01:57;19.10;;;14.23;;
50988;SDS011;37008;52.210;21.112;2023-03-20T16:04:25;19.90;;;13.82;;
50988;SDS011;37008;52.210;21.112;2023-03-20T16:06:55;18.65;;;12.85;;
50988;SDS011;37008;52.210;21.112;2023-03-20T16:09:23;17.08;;;13.15;;
50988;SDS011;37008;52.210;21.112;2023-03-20T16:11:59;18.45;;;13.77;;
50988;SDS011;37008;52.210;21.112;2023-03-20T16:14:28;47.85;;;28.60;;
50988;SDS011;37008;52.210;21.112;2023-03-20T16:16:56;30.77;;;20.60;;
50988;SDS011;37008;52.210;21.112;2023-03-20T16:19:24;18.10;;;11.85;;
50988;SDS011;37008;52.210;21.112;2023-03-20T16:22:01;15.82;;;10.77;;
50988;SDS011;37008;52.210;21.112;2023-03-20T16:24:47;12.85;;;10.63;;
50988;SDS011;37008;52.210;21.112;2023-03-20T16:27:23;20.17;;;11.00;;
50988;SDS011;37008;52.210;21.112;2023-03-20T16:29:54;15.85;;;10.80;;
50988;SDS011;37008;52.210;21.112;2023-03-20T16:32:37;14.60;;;10.95;;
50988;SDS011;37008;52.210;21.112;2023-03-20T16:35:18;13.55;;;10.00;;
50988;SDS011;37008;52.210;21.112;2023-03-20T16:37:53;14.60;;;9.30;;
50988;SDS011;37008;52.210;21.112;2023-03-20T16:40:20;11.55;;;8.95;;
50988;SDS011;37008;52.210;21.112;2023-03-20T16:42:52;13.50;;;9.07;;
50988;SDS011;37008;52.210;21.112;2023-03-20T16:45:23;18.08;;;10.75;;
50988;SDS011;37008;52.210;21.112;2023-03-20T16:47:49;17.85;;;10.20;;
50988;SDS011;37008;52.210;21.112;2023-03-20T16:50:21;17.63;;;9.90;;
50988;SDS011;37008;52.210;21.112;2023-03-20T16:52:49;12.25;;;8.48;;
50988;SDS011;37008;52.210;21.112;2023-03-20T16:55:25;11.00;;;8.10;;
50988;SDS011;37008;52.210;21.112;2023-03-20T16:57:54;11.35;;;8.35;;
50988;SDS011;37008;52.210;21.112;2023-03-20T17:03:34;11.23;;;7.32;;
50988;SDS011;37008;52.210;21.112;2023-03-20T17:11:16;13.60;;;8.05;;
50988;SDS011;37008;52.210;21.112;2023-03-20T17:13:51;33.15;;;20.00;;
50988;SDS011;37008;52.210;21.112;2023-03-20T17:16:17;29.48;;;16.88;;
50988;SDS011;37008;52.210;21.112;2023-03-20T17:18:45;21.00;;;13.35;;
50988;SDS011;37008;52.210;21.112;2023-03-20T17:21:28;18.55;;;10.00;;
50988;SDS011;37008;52.210;21.112;2023-03-20T17:23:54;13.70;;;9.27;;
50988;SDS011;37008;52.210;21.112;2023-03-20T17:26:19;14.23;;;9.88;;
50988;SDS011;37008;52.210;21.112;2023-03-20T17:28:45;18.45;;;10.50;;